createdAt,value
2023-01-15T00:00:24.313Z,94663.4
2023-01-15T00:01:26.898Z,94656.2
2023-01-15T00:02:29.599Z,94657.7
2023-01-15T00:03:32.558Z,94654.9
2023-01-15T00:04:34.873Z,94651.9
2023-01-15T00:05:37.399Z,94654.8
2023-01-15T00:06:39.916Z,94651.9
2023-01-15T00:07:42.438Z,94645.8
2023-01-15T00:08:44.935Z,94642.9
2023-01-15T00:09:47.220Z,94631.8
2023-01-15T00:10:49.535Z,94638.9
2023-01-15T00:11:52.074Z,94644.6
2023-01-15T00:12:54.027Z,94637.4
2023-01-15T00:13:56.545Z,94636
2023-01-15T00:14:58.815Z,94632.2
2023-01-15T00:16:00.756Z,94636.3
2023-01-15T00:17:03.052Z,94642.7
2023-01-15T00:18:05.054Z,94634.8
2023-01-15T00:19:07.551Z,94641
2023-01-15T00:20:09.796Z,94637.3
2023-01-15T00:21:12.047Z,94632.2
2023-01-15T00:22:14.592Z,94639.5
2023-01-15T00:23:16.561Z,94642.8
2023-01-15T00:24:19.077Z,94638.5
2023-01-15T00:25:21.031Z,94641.3
2023-01-15T00:26:23.546Z,94637.6
2023-01-15T00:27:26.036Z,94637.2
2023-01-15T00:28:28.309Z,94633.8
2023-01-15T00:29:30.903Z,94631.6
2023-01-15T00:30:32.857Z,94638.9
2023-01-15T00:31:35.441Z,94635.7
2023-01-15T00:32:37.960Z,94632
2023-01-15T00:33:40.467Z,94628.3
2023-01-15T00:34:42.739Z,94623
2023-01-15T00:35:45.224Z,94620.9
2023-01-15T00:36:47.829Z,94624.2
2023-01-15T00:37:50.327Z,94615.6
2023-01-15T00:38:52.816Z,94607.8
2023-01-15T00:39:55.039Z,94617.5
2023-01-15T00:40:57.256Z,94617.5
2023-01-15T00:41:59.539Z,94612.3
2023-01-15T00:43:01.744Z,94605
2023-01-15T00:44:04.263Z,94607.2
2023-01-15T00:45:07.408Z,94598.9
2023-01-15T00:46:09.997Z,94592.3
2023-01-15T00:47:12.334Z,94603
2023-01-15T00:48:14.830Z,94605.3
2023-01-15T00:49:16.769Z,94609.2
2023-01-15T00:50:19.003Z,94613.7
2023-01-15T00:51:21.506Z,94608.5
2023-01-15T00:52:23.836Z,94603.8
2023-01-15T00:53:26.045Z,94600.5
2023-01-15T00:54:28.271Z,94601.3
2023-01-15T00:55:30.204Z,94609
2023-01-15T00:56:32.416Z,94614.1
2023-01-15T00:57:34.927Z,94613.5
2023-01-15T00:58:37.440Z,94600
2023-01-15T00:59:39.947Z,94598.5
2023-01-15T01:00:42.375Z,94594.6
2023-01-15T01:01:45.545Z,94609.8
2023-01-15T01:02:48.194Z,94613.5
2023-01-15T01:03:50.443Z,94607.1
2023-01-15T01:04:52.698Z,94605
2023-01-15T01:05:54.910Z,94594.4
2023-01-15T01:06:57.165Z,94593.1
2023-01-15T01:07:59.663Z,94596.5
2023-01-15T01:09:02.228Z,94606.7
2023-01-15T01:10:04.738Z,94599.8
2023-01-15T01:11:07.272Z,94587.9
2023-01-15T01:12:09.841Z,94580.2
2023-01-15T01:13:12.366Z,94579.2
2023-01-15T01:14:14.886Z,94587.7
2023-01-15T01:15:17.394Z,94576.1
2023-01-15T01:16:20.089Z,94583.3
2023-01-15T01:17:22.737Z,94580.8
2023-01-15T01:18:25.255Z,94582.9
2023-01-15T01:19:27.794Z,94575.7
2023-01-15T01:20:30.034Z,94579.6
2023-01-15T01:21:32.584Z,94579.3
2023-01-15T01:22:34.545Z,94587
2023-01-15T01:23:37.041Z,94589.4
2023-01-15T01:24:39.559Z,94582.4
2023-01-15T01:25:42.076Z,94578.2
2023-01-15T01:26:44.299Z,94571.7
2023-01-15T01:27:46.808Z,94569.6
2023-01-15T01:28:49.020Z,94559.7
2023-01-15T01:29:51.579Z,94554.1
2023-01-15T01:30:53.893Z,94564
2023-01-15T01:31:56.472Z,94560.6
2023-01-15T01:32:58.687Z,94556.2
2023-01-15T01:34:01.239Z,94549.9
2023-01-15T01:35:03.761Z,94547.2
2023-01-15T01:36:06.073Z,94541.3
2023-01-15T01:37:08.331Z,94543.3
2023-01-15T01:38:10.592Z,94539.6
2023-01-15T01:39:12.846Z,94536
2023-01-15T01:40:15.358Z,94541.6
2023-01-15T01:41:17.588Z,94534
2023-01-15T01:42:19.524Z,94532.5
2023-01-15T01:43:21.790Z,94523.1
2023-01-15T01:44:24.292Z,94526.4
2023-01-15T01:45:27.207Z,94520.7
2023-01-15T01:46:29.593Z,94518.9
2023-01-15T01:47:31.846Z,94520.6
2023-01-15T01:48:34.424Z,94518.1
2023-01-15T01:49:36.689Z,94515.2
2023-01-15T01:50:39.200Z,94512.6
2023-01-15T01:51:41.781Z,94522.4
2023-01-15T01:52:44.291Z,94516.7
2023-01-15T01:53:46.843Z,94510.9
2023-01-15T01:54:49.343Z,94506.6
2023-01-15T01:55:51.607Z,94500
2023-01-15T01:56:53.557Z,94506.6
2023-01-15T01:57:55.787Z,94498.7
2023-01-15T01:58:58.039Z,94492.1
2023-01-15T02:00:00.693Z,94489.8
2023-01-15T02:01:03.911Z,94488.2
2023-01-15T02:02:07.412Z,94486.5
2023-01-15T02:03:09.869Z,94484.3
2023-01-15T02:04:12.392Z,94481.5
2023-01-15T02:05:14.331Z,94483.8
2023-01-15T02:06:16.565Z,94484.6
2023-01-15T02:07:19.109Z,94480.6
2023-01-15T02:08:21.396Z,94481.8
2023-01-15T02:09:23.914Z,94486.5
2023-01-15T02:10:25.902Z,94483.5
2023-01-15T02:11:28.417Z,94489.1
2023-01-15T02:12:30.624Z,94487.7
2023-01-15T02:13:33.145Z,94478.2
2023-01-15T02:15:40.049Z,94475.8
2023-01-15T02:16:42.631Z,94481.7
2023-01-15T02:17:45.323Z,94476.7
2023-01-15T02:18:47.562Z,94473.1
2023-01-15T02:19:50.151Z,94472.3
2023-01-15T02:20:52.398Z,94471.4
2023-01-15T02:21:54.918Z,94471.6
2023-01-15T02:22:56.951Z,94471.3
2023-01-15T02:23:59.695Z,94468.1
2023-01-15T02:25:07.025Z,94469.1
2023-01-15T02:26:09.538Z,94463.2
2023-01-15T02:27:11.779Z,94457.4
2023-01-15T02:28:14.283Z,94457.4
2023-01-15T02:29:16.530Z,94459.8
2023-01-15T02:30:19.056Z,94460
2023-01-15T02:31:21.206Z,94461.7
2023-01-15T02:32:23.458Z,94458
2023-01-15T02:33:25.965Z,94460.5
2023-01-15T02:34:28.526Z,94454.6
2023-01-15T02:35:31.051Z,94456.8
2023-01-15T02:36:33.531Z,94453.3
2023-01-15T02:37:35.745Z,94449.5
2023-01-15T02:38:38.243Z,94454
2023-01-15T02:39:40.475Z,94453.2
2023-01-15T02:40:42.984Z,94453.9
2023-01-15T02:41:45.521Z,94447.9
2023-01-15T02:42:48.013Z,94448.3
2023-01-15T02:43:50.510Z,94452
2023-01-15T02:44:53.025Z,94450.4
2023-01-15T02:45:55.746Z,94447.9
2023-01-15T02:46:57.798Z,94447.4
2023-01-15T02:48:00.311Z,94445.3
2023-01-15T02:49:02.245Z,94448.1
2023-01-15T02:50:04.252Z,94447.4
2023-01-15T02:51:06.200Z,94444
2023-01-15T02:52:08.742Z,94442
2023-01-15T02:53:10.969Z,94440.1
2023-01-15T02:54:13.270Z,94436.8
2023-01-15T02:55:15.835Z,94434.4
2023-01-15T02:56:18.068Z,94434.7
2023-01-15T02:57:20.587Z,94435.3
2023-01-15T02:58:22.839Z,94435
2023-01-15T02:59:25.385Z,94429.9
2023-01-15T03:00:27.074Z,94426.6
2023-01-15T03:01:29.906Z,94431.2
2023-01-15T03:02:32.825Z,94425.1
2023-01-15T03:03:35.224Z,94428.1
2023-01-15T03:04:37.197Z,94426.6
2023-01-15T03:05:39.442Z,94423.6
2023-01-15T03:06:40.832Z,94418.4
2023-01-15T03:07:43.132Z,94418.4
2023-01-15T03:08:45.636Z,94414.3
2023-01-15T03:09:48.134Z,94413.3
2023-01-15T03:10:50.358Z,94410.2
2023-01-15T03:11:52.597Z,94414.9
2023-01-15T03:12:55.099Z,94411.4
2023-01-15T03:13:57.363Z,94404.2
2023-01-15T03:14:59.317Z,94411.4
2023-01-15T03:16:01.849Z,94409.1
2023-01-15T03:17:04.061Z,94411.4
2023-01-15T03:18:05.997Z,94404
2023-01-15T03:19:08.236Z,94405.6
2023-01-15T03:20:10.474Z,94402.2
2023-01-15T03:21:12.698Z,94391
2023-01-15T03:22:14.650Z,94392.6
2023-01-15T03:23:17.158Z,94398.1
2023-01-15T03:24:19.667Z,94399.7
2023-01-15T03:25:22.191Z,94395.2
2023-01-15T03:26:24.437Z,94395.4
2023-01-15T03:27:26.689Z,94397.3
2023-01-15T03:28:28.966Z,94398.4
2023-01-15T03:29:31.298Z,94391.6
2023-01-15T03:30:34.048Z,94398.2
2023-01-15T03:31:35.868Z,94388.2
2023-01-15T03:32:38.373Z,94379.3
2023-01-15T03:33:40.318Z,94374.4
2023-01-15T03:34:42.816Z,94378
2023-01-15T03:35:45.362Z,94373.7
2023-01-15T03:36:47.315Z,94379.8
2023-01-15T03:37:49.905Z,94379.9
2023-01-15T03:38:52.422Z,94368.7
2023-01-15T03:39:54.647Z,94368.9
2023-01-15T03:40:57.169Z,94378.2
2023-01-15T03:41:59.678Z,94381.7
2023-01-15T03:43:02.215Z,94381.2
2023-01-15T03:44:04.812Z,94379
2023-01-15T03:45:07.083Z,94387
2023-01-15T03:46:09.872Z,94378.2
2023-01-15T03:47:12.434Z,94387.6
2023-01-15T03:48:14.953Z,94381.2
2023-01-15T03:49:16.926Z,94374.6
2023-01-15T03:50:19.444Z,94370.1
2023-01-15T03:51:21.699Z,94368.5
2023-01-15T03:52:24.206Z,94363.4
2023-01-15T03:53:26.712Z,94366.7
2023-01-15T03:54:28.985Z,94363.5
2023-01-15T03:55:31.497Z,94365
2023-01-15T03:56:33.737Z,94361.9
2023-01-15T03:57:36.257Z,94361.9
2023-01-15T03:58:38.787Z,94354.4
2023-01-15T03:59:41.021Z,94352.5
2023-01-15T04:00:43.557Z,94352.9
2023-01-15T04:01:46.465Z,94351.1
2023-01-15T04:02:49.184Z,94345.6
2023-01-15T04:03:51.450Z,94348.7
2023-01-15T04:04:54.004Z,94345.6
2023-01-15T04:05:56.218Z,94347.2
2023-01-15T04:06:58.764Z,94342.5
2023-01-15T04:08:01.324Z,94348
2023-01-15T04:09:03.544Z,94347.5
2023-01-15T04:10:06.132Z,94350.4
2023-01-15T04:11:08.672Z,94351.2
2023-01-15T04:12:11.237Z,94348.8
2023-01-15T04:13:13.756Z,94353.3
2023-01-15T04:14:16.253Z,94345.2
2023-01-15T04:15:18.761Z,94344.3
2023-01-15T04:16:20.994Z,94345.5
2023-01-15T04:17:23.496Z,94343.9
2023-01-15T04:18:26.028Z,94343.6
2023-01-15T04:19:28.557Z,94343.6
2023-01-15T04:20:30.907Z,94348.7
2023-01-15T04:21:33.180Z,94345.4
2023-01-15T04:22:35.666Z,94344.7
2023-01-15T04:23:37.920Z,94345.6
2023-01-15T04:24:40.212Z,94342.6
2023-01-15T04:25:42.472Z,94344.1
2023-01-15T04:26:44.986Z,94335
2023-01-15T04:27:47.511Z,94336.3
2023-01-15T04:28:50.011Z,94333.3
2023-01-15T04:29:52.271Z,94331.1
2023-01-15T04:30:54.657Z,94327.9
2023-01-15T04:31:57.203Z,94332.2
2023-01-15T04:32:59.756Z,94333.5
2023-01-15T04:34:02.285Z,94326.9
2023-01-15T04:35:04.805Z,94328.8
2023-01-15T04:36:07.346Z,94326.4
2023-01-15T04:37:09.912Z,94327.5
2023-01-15T04:38:12.149Z,94322.5
2023-01-15T04:39:14.638Z,94324.6
2023-01-15T04:40:17.910Z,94319.8
2023-01-15T04:41:19.576Z,94313.3
2023-01-15T04:42:21.816Z,94314.3
2023-01-15T04:43:24.304Z,94312.5
2023-01-15T04:44:26.807Z,94313.1
2023-01-15T04:45:29.297Z,94315.6
2023-01-15T04:46:32.157Z,94312.8
2023-01-15T04:47:34.523Z,94311.1
2023-01-15T04:48:36.800Z,94309.3
2023-01-15T04:49:39.042Z,94314.5
2023-01-15T04:50:41.803Z,94311.2
2023-01-15T04:51:44.071Z,94313.6
2023-01-15T04:52:46.078Z,94318.4
2023-01-15T04:53:48.342Z,94320.7
2023-01-15T04:54:50.620Z,94322.7
2023-01-15T04:55:53.135Z,94325
2023-01-15T04:56:55.685Z,94327.6
2023-01-15T04:57:57.668Z,94324.3
2023-01-15T04:59:00.155Z,94323.9
2023-01-15T05:00:02.139Z,94316.1
2023-01-15T05:01:04.750Z,94318
2023-01-15T05:02:08.978Z,94322.6
2023-01-15T05:03:11.702Z,94322.1
2023-01-15T05:04:14.089Z,94319.8
2023-01-15T05:05:16.624Z,94315.3
2023-01-15T05:06:19.116Z,94319.7
2023-01-15T05:07:21.627Z,94322.2
2023-01-15T05:08:24.133Z,94312.4
2023-01-15T05:09:26.405Z,94316.8
2023-01-15T05:10:28.913Z,94319.5
2023-01-15T05:11:31.440Z,94323.1
2023-01-15T05:12:33.945Z,94324.6
2023-01-15T05:13:36.454Z,94325.2
2023-01-15T05:14:38.953Z,94329
2023-01-15T05:15:41.061Z,94332.9
2023-01-15T05:16:43.713Z,94327.6
2023-01-15T05:17:45.957Z,94329.9
2023-01-15T05:18:48.476Z,94327
2023-01-15T05:19:50.689Z,94329.7
2023-01-15T05:20:52.694Z,94330.5
2023-01-15T05:21:54.936Z,94333.1
2023-01-15T05:22:57.175Z,94335.8
2023-01-15T05:23:59.426Z,94337.5
2023-01-15T05:25:01.999Z,94327.4
2023-01-15T05:26:04.524Z,94326.9
2023-01-15T05:27:06.749Z,94316.1
2023-01-15T05:28:09.037Z,94315.3
2023-01-15T05:29:11.334Z,94320.3
2023-01-15T05:30:13.871Z,94308.9
2023-01-15T05:31:16.598Z,94309.3
2023-01-15T05:32:18.899Z,94299.2
2023-01-15T05:33:21.385Z,94313.8
2023-01-15T05:34:23.643Z,94313.5
2023-01-15T05:35:26.200Z,94311.4
2023-01-15T05:36:28.427Z,94309.1
2023-01-15T05:37:30.634Z,94307.8
2023-01-15T05:38:32.892Z,94306
2023-01-15T05:39:35.381Z,94299.5
2023-01-15T05:40:37.631Z,94292.8
2023-01-15T05:41:40.125Z,94300.8
2023-01-15T05:42:42.656Z,94289.8
2023-01-15T05:43:45.149Z,94290.9
2023-01-15T05:44:47.621Z,94286
2023-01-15T05:45:49.894Z,94283.6
2023-01-15T05:46:52.479Z,94289.5
2023-01-15T05:47:55.003Z,94287.6
2023-01-15T05:48:57.235Z,94289.9
2023-01-15T05:49:59.471Z,94299.2
2023-01-15T05:51:01.409Z,94304.2
2023-01-15T05:52:03.653Z,94304.1
2023-01-15T05:53:05.924Z,94303.4
2023-01-15T05:54:08.169Z,94310
2023-01-15T05:55:10.240Z,94309
2023-01-15T05:56:12.474Z,94307.2
2023-01-15T05:57:14.713Z,94304.8
2023-01-15T05:58:16.663Z,94306.9
2023-01-15T05:59:19.212Z,94302.8
2023-01-15T06:00:21.418Z,94299.7
2023-01-15T06:01:24.342Z,94305.6
2023-01-15T06:02:27.078Z,94297.5
2023-01-15T06:03:29.634Z,94294.4
2023-01-15T06:04:32.259Z,94298.7
2023-01-15T06:05:34.205Z,94295.5
2023-01-15T06:06:36.451Z,94300.7
2023-01-15T06:07:38.947Z,94300.4
2023-01-15T06:08:41.161Z,94298.4
2023-01-15T06:09:43.693Z,94301.3
2023-01-15T06:10:45.638Z,94299.1
2023-01-15T06:11:47.938Z,94299.8
2023-01-15T06:12:50.159Z,94306.5
2023-01-15T06:13:52.421Z,94299.5
2023-01-15T06:14:54.940Z,94298.3
2023-01-15T06:15:57.658Z,94300.1
2023-01-15T06:17:00.286Z,94304.8
2023-01-15T06:18:02.281Z,94307.2
2023-01-15T06:19:04.939Z,94304.5
2023-01-15T06:20:07.180Z,94307.7
2023-01-15T06:21:09.677Z,94314.6
2023-01-15T06:22:12.657Z,94306.8
2023-01-15T06:23:14.892Z,94311.1
2023-01-15T06:24:17.233Z,94306.3
2023-01-15T06:25:19.744Z,94311.6
2023-01-15T06:26:22.252Z,94316.4
2023-01-15T06:27:24.786Z,94311.3
2023-01-15T06:28:27.321Z,94313.7
2023-01-15T06:29:29.555Z,94308.5
2023-01-15T06:30:31.804Z,94312.9
2023-01-15T06:31:34.645Z,94309.6
2023-01-15T06:32:37.060Z,94306.2
2023-01-15T06:33:39.307Z,94312.1
2023-01-15T06:34:41.535Z,94318
2023-01-15T06:35:43.774Z,94316.2
2023-01-15T06:36:46.013Z,94308.1
2023-01-15T06:37:48.231Z,94318
2023-01-15T06:38:50.757Z,94307.6
2023-01-15T06:39:53.265Z,94303.9
2023-01-15T06:40:55.468Z,94314.5
2023-01-15T06:41:57.438Z,94304.4
2023-01-15T06:42:59.990Z,94313.6
2023-01-15T06:44:02.212Z,94313.3
2023-01-15T06:45:04.837Z,94317.5
2023-01-15T06:46:07.329Z,94308
2023-01-15T06:47:09.913Z,94308.7
2023-01-15T06:48:12.407Z,94312.2
2023-01-15T06:49:14.937Z,94311.4
2023-01-15T06:50:17.205Z,94313.4
2023-01-15T06:51:19.152Z,94311.7
2023-01-15T06:52:21.448Z,94301.7
2023-01-15T06:53:23.675Z,94314.8
2023-01-15T06:54:25.921Z,94309.6
2023-01-15T06:55:28.463Z,94305.1
2023-01-15T06:56:30.986Z,94297.4
2023-01-15T06:57:33.240Z,94304.1
2023-01-15T06:58:35.468Z,94309.3
2023-01-15T06:59:37.756Z,94304.6
2023-01-15T07:00:40.249Z,94289.1
2023-01-15T07:01:42.805Z,94318.7
2023-01-15T07:02:45.422Z,94303.5
2023-01-15T07:03:48.147Z,94305.9
2023-01-15T07:04:50.784Z,94295.1
2023-01-15T07:05:52.786Z,94302.6
2023-01-15T07:06:55.036Z,94290.5
2023-01-15T07:07:57.561Z,94298.4
2023-01-15T07:08:59.524Z,94286.3
2023-01-15T07:10:02.139Z,94285.1
2023-01-15T07:11:04.499Z,94283
2023-01-15T07:12:06.752Z,94289.3
2023-01-15T07:13:08.963Z,94275.6
2023-01-15T07:14:11.609Z,94276.4
2023-01-15T07:15:13.892Z,94274.9
2023-01-15T07:16:16.275Z,94282
2023-01-15T07:17:18.906Z,94272.8
2023-01-15T07:18:21.431Z,94276.7
2023-01-15T07:19:23.187Z,94282.2
2023-01-15T07:20:25.718Z,94265.2
2023-01-15T07:21:27.953Z,94274.7
2023-01-15T07:22:30.196Z,94268.9
2023-01-15T07:23:32.463Z,94274.4
2023-01-15T07:24:34.976Z,94268.4
2023-01-15T07:25:37.559Z,94272.8
2023-01-15T07:26:40.101Z,94267.5
2023-01-15T07:27:42.621Z,94269.4
2023-01-15T07:28:45.198Z,94278.2
2023-01-15T07:29:47.688Z,94279.3
2023-01-15T07:30:50.209Z,94270.1
2023-01-15T07:31:52.919Z,94283.7
2023-01-15T07:32:55.432Z,94265.4
2023-01-15T07:33:57.668Z,94271.5
2023-01-15T07:35:00.170Z,94270.9
2023-01-15T07:36:02.659Z,94280.1
2023-01-15T07:37:04.901Z,94276.1
2023-01-15T07:38:07.418Z,94285.3
2023-01-15T07:39:09.949Z,94284.7
2023-01-15T07:40:12.183Z,94289.9
2023-01-15T07:41:14.669Z,94282.5
2023-01-15T07:42:17.180Z,94282.2
2023-01-15T07:43:19.702Z,94296.3
2023-01-15T07:44:21.653Z,94296.5
2023-01-15T07:45:24.410Z,94286
2023-01-15T07:46:26.961Z,94312.4
2023-01-15T07:47:28.886Z,94299.4
2023-01-15T07:48:31.124Z,94311.4
2023-01-15T07:49:33.346Z,94306.2
2023-01-15T07:50:35.857Z,94294.5
2023-01-15T07:51:38.384Z,94294.9
2023-01-15T07:52:40.624Z,94284.9
2023-01-15T07:53:43.168Z,94296.6
2023-01-15T07:54:45.464Z,94289.8
2023-01-15T07:55:47.736Z,94296
2023-01-15T07:56:50.233Z,94302.5
2023-01-15T07:57:52.535Z,94305.3
2023-01-15T07:58:55.051Z,94295.7
2023-01-15T07:59:57.292Z,94302
2023-01-15T08:01:00.086Z,94296.6
2023-01-15T08:02:03.393Z,94294.5
2023-01-15T08:03:05.988Z,94303.9
2023-01-15T08:04:08.865Z,94319
2023-01-15T08:05:11.521Z,94305
2023-01-15T08:06:13.561Z,94297.2
2023-01-15T08:07:16.107Z,94317.5
2023-01-15T08:08:18.346Z,94307.3
2023-01-15T08:09:20.592Z,94293.8
2023-01-15T08:10:23.110Z,94301.3
2023-01-15T08:11:25.620Z,94311.7
2023-01-15T08:12:28.164Z,94282.9
2023-01-15T08:13:30.689Z,94298
2023-01-15T08:14:33.200Z,94297.9
2023-01-15T08:15:35.143Z,94298.6
2023-01-15T08:16:37.981Z,94285.9
2023-01-15T08:17:40.307Z,94293.2
2023-01-15T08:18:42.581Z,94289.5
2023-01-15T08:19:44.524Z,94290.3
2023-01-15T08:20:48.771Z,94291.6
2023-01-15T08:21:51.288Z,94289.2
2023-01-15T08:22:53.947Z,94289
2023-01-15T08:23:56.186Z,94299.2
2023-01-15T08:24:58.467Z,94300.3
2023-01-15T08:26:00.713Z,94299.2
2023-01-15T08:27:03.242Z,94297.4
2023-01-15T08:28:05.764Z,94297.3
2023-01-15T08:29:08.294Z,94302.1
2023-01-15T08:30:10.550Z,94302.6
2023-01-15T08:31:13.097Z,94292.4
2023-01-15T08:32:15.673Z,94291.1
2023-01-15T08:33:18.189Z,94294
2023-01-15T08:34:20.725Z,94290.1
2023-01-15T08:35:23.240Z,94298.3
2023-01-15T08:36:25.760Z,94289.5
2023-01-15T08:37:27.989Z,94289.2
2023-01-15T08:38:30.528Z,94288.4
2023-01-15T08:39:33.026Z,94285.7
2023-01-15T08:40:35.527Z,94284.2
2023-01-15T08:41:37.468Z,94283
2023-01-15T08:42:39.464Z,94280.1
2023-01-15T08:43:41.694Z,94275.6
2023-01-15T08:44:43.921Z,94279.9
2023-01-15T08:45:46.304Z,94273.7
2023-01-15T08:46:48.903Z,94271.5
2023-01-15T08:47:51.423Z,94273.5
2023-01-15T08:48:53.988Z,94267.3
2023-01-15T08:49:56.507Z,94278.1
2023-01-15T08:50:59.027Z,94282.1
2023-01-15T08:52:01.630Z,94269.7
2023-01-15T08:53:03.312Z,94260
2023-01-15T08:54:05.828Z,94273.6
2023-01-15T08:55:08.443Z,94268.3
2023-01-15T08:56:10.780Z,94266.7
2023-01-15T08:57:13.315Z,94265.1
2023-01-15T08:58:15.533Z,94253.8
2023-01-15T08:59:17.784Z,94248.5
2023-01-15T09:00:20.331Z,94262.5
2023-01-15T09:01:22.466Z,94271.2
2023-01-15T09:02:24.550Z,94252.6
2023-01-15T09:03:26.481Z,94250.2
2023-01-15T09:04:28.923Z,94248.5
2023-01-15T09:05:31.551Z,94252.8
2023-01-15T09:06:34.074Z,94254
2023-01-15T09:07:36.623Z,94245.5
2023-01-15T09:08:38.966Z,94251
2023-01-15T09:09:41.213Z,94252.3
2023-01-15T09:10:43.438Z,94254.2
2023-01-15T09:11:47.129Z,94246.8
2023-01-15T09:12:49.122Z,94254.1
2023-01-15T09:13:51.363Z,94246
2023-01-15T09:15:58.874Z,94246.1
2023-01-15T09:17:01.153Z,94243.2
2023-01-15T09:18:03.670Z,94234.9
2023-01-15T09:19:05.930Z,94238.9
2023-01-15T09:20:08.523Z,94236.6
2023-01-15T09:21:10.514Z,94235.9
2023-01-15T09:22:12.957Z,94224.4
2023-01-15T09:23:15.464Z,94224
2023-01-15T09:24:18.015Z,94223
2023-01-15T09:25:20.354Z,94211.4
2023-01-15T09:26:22.614Z,94212.4
2023-01-15T09:27:24.583Z,94213.4
2023-01-15T09:28:26.567Z,94211.1
2023-01-15T09:29:29.081Z,94202.2
2023-01-15T09:30:31.893Z,94209
2023-01-15T09:31:34.243Z,94215.8
2023-01-15T09:32:36.498Z,94211.6
2023-01-15T09:33:39.083Z,94203.8
2023-01-15T09:34:41.337Z,94203.7
2023-01-15T09:35:43.971Z,94199.2
2023-01-15T09:36:46.550Z,94232.1
2023-01-15T09:37:48.782Z,94211.8
2023-01-15T09:38:51.387Z,94199.9
2023-01-15T09:39:53.905Z,94210.8
2023-01-15T09:40:56.426Z,94202.9
2023-01-15T09:41:59.396Z,94195.7
2023-01-15T09:43:01.899Z,94199.2
2023-01-15T09:44:04.144Z,94197.8
2023-01-15T09:45:06.086Z,94203.8
2023-01-15T09:46:07.876Z,94205.7
2023-01-15T09:47:10.555Z,94193.5
2023-01-15T09:48:12.812Z,94184.7
2023-01-15T09:49:14.851Z,94191.6
2023-01-15T09:50:17.368Z,94178.6
2023-01-15T09:51:19.912Z,94179.4
2023-01-15T09:52:21.868Z,94196.8
2023-01-15T09:53:24.093Z,94187.9
2023-01-15T09:54:26.341Z,94173
2023-01-15T09:55:28.578Z,94195.8
2023-01-15T09:56:30.793Z,94190.1
2023-01-15T09:57:33.296Z,94202
2023-01-15T09:58:35.519Z,94211.2
2023-01-15T09:59:38.049Z,94213.3
2023-01-15T10:00:40.275Z,94215.5
2023-01-15T10:01:42.522Z,94217.8
2023-01-15T10:02:44.846Z,94228.1
2023-01-15T10:03:47.797Z,94238
2023-01-15T10:04:50.111Z,94258.7
2023-01-15T10:05:52.400Z,94269.5
2023-01-15T10:06:54.668Z,94304.4
2023-01-15T10:07:56.938Z,94304.1
2023-01-15T10:08:59.495Z,94322.9
2023-01-15T10:10:02.007Z,94345.9
2023-01-15T10:11:04.292Z,94357.7
2023-01-15T10:12:06.578Z,94355
2023-01-15T10:13:08.825Z,94354.1
2023-01-15T10:14:10.783Z,94365.7
2023-01-15T10:15:13.360Z,94377.9
2023-01-15T10:16:15.889Z,94388.3
2023-01-15T10:17:18.482Z,94406.9
2023-01-15T10:18:21.015Z,94420
2023-01-15T10:19:23.308Z,94422.6
2023-01-15T10:20:25.008Z,94431.1
2023-01-15T10:21:26.961Z,94434.7
2023-01-15T10:22:29.002Z,94438.1
2023-01-15T10:23:31.253Z,94444
2023-01-15T10:24:33.502Z,94440.9
2023-01-15T10:25:35.793Z,94449.8
2023-01-15T10:26:38.394Z,94449.2
2023-01-15T10:27:40.670Z,94445.4
2023-01-15T10:28:42.627Z,94448
2023-01-15T10:29:44.891Z,94456.5
2023-01-15T10:30:47.665Z,94470.5
2023-01-15T10:31:49.759Z,94475.7
2023-01-15T10:33:57.271Z,94480.6
2023-01-15T10:34:59.812Z,94474.5
2023-01-15T10:36:02.339Z,94473.8
2023-01-15T10:37:04.602Z,94495.8
2023-01-15T10:38:07.007Z,94488.9
2023-01-15T10:39:08.990Z,94483.2
2023-01-15T10:40:11.668Z,94484.6
2023-01-15T10:41:13.964Z,94486.6
2023-01-15T10:42:16.227Z,94495.2
2023-01-15T10:43:18.481Z,94489.3
2023-01-15T10:44:20.761Z,94492
2023-01-15T10:45:23.318Z,94496.5
2023-01-15T10:46:25.779Z,94500.6
2023-01-15T10:47:28.324Z,94493.7
2023-01-15T10:48:30.599Z,94491.1
2023-01-15T10:49:32.829Z,94497.5
2023-01-15T10:50:34.818Z,94497.8
2023-01-15T10:51:37.076Z,94502.8
2023-01-15T10:52:39.028Z,94507
2023-01-15T10:53:41.271Z,94501.3
2023-01-15T10:54:43.677Z,94515.2
2023-01-15T10:55:46.280Z,94509.6
2023-01-15T10:56:48.580Z,94521.9
2023-01-15T10:58:55.823Z,94528
2023-01-15T10:59:58.131Z,94530.3
2023-01-15T11:01:00.892Z,94528.3
2023-01-15T11:02:03.653Z,94536.1
2023-01-15T11:03:06.213Z,94536
2023-01-15T11:04:08.580Z,94535.5
2023-01-15T11:05:10.815Z,94530.4
2023-01-15T11:06:13.326Z,94540.3
2023-01-15T11:07:15.584Z,94529.3
2023-01-15T11:09:22.548Z,94533.7
2023-01-15T11:10:24.524Z,94526.2
2023-01-15T11:11:27.600Z,94532.9
2023-01-15T11:12:29.858Z,94535
2023-01-15T11:13:32.080Z,94539.8
2023-01-15T11:14:34.336Z,94533
2023-01-15T11:15:36.668Z,94535.2
2023-01-15T11:16:39.257Z,94532.7
2023-01-15T11:17:41.860Z,94541
2023-01-15T11:18:43.846Z,94542.8
2023-01-15T11:19:45.830Z,94546.8
2023-01-15T11:20:47.850Z,94544.6
2023-01-15T11:21:50.062Z,94543.9
2023-01-15T11:22:52.011Z,94546.5
2023-01-15T11:23:53.699Z,94544.2
2023-01-15T11:24:56.212Z,94547.2
2023-01-15T11:25:58.475Z,94553.9
2023-01-15T11:27:01.046Z,94542.2
2023-01-15T11:28:03.627Z,94537.7
2023-01-15T11:29:06.167Z,94538.2
2023-01-15T11:30:08.715Z,94553.4
2023-01-15T11:31:11.232Z,94548.6
2023-01-15T11:32:13.352Z,94549.2
2023-01-15T11:33:15.611Z,94550
2023-01-15T11:34:19.358Z,94548.4
2023-01-15T11:35:24.628Z,94543
2023-01-15T11:36:26.898Z,94556.9
2023-01-15T11:37:29.183Z,94557.5
2023-01-15T11:38:31.477Z,94563.8
2023-01-15T11:39:33.770Z,94560.9
2023-01-15T11:40:36.036Z,94565.9
2023-01-15T11:41:38.281Z,94564.5
2023-01-15T11:42:40.807Z,94575.8
2023-01-15T11:43:43.320Z,94572.5
2023-01-15T11:44:45.576Z,94580.7
2023-01-15T11:45:47.557Z,94577.1
2023-01-15T11:46:49.809Z,94584
2023-01-15T11:47:52.065Z,94581.8
2023-01-15T11:48:54.300Z,94586.5
2023-01-15T11:49:56.553Z,94598.2
2023-01-15T11:50:59.077Z,94603.8
2023-01-15T11:52:00.771Z,94614.1
2023-01-15T11:53:03.276Z,94614.9
2023-01-15T11:54:05.797Z,94617.4
2023-01-15T11:55:08.343Z,94612.5
2023-01-15T11:56:10.586Z,94621.9
2023-01-15T11:57:12.008Z,94620.3
2023-01-15T11:58:14.615Z,94627.8
2023-01-15T11:59:17.169Z,94637.5
2023-01-15T12:00:19.739Z,94624.8
2023-01-15T12:01:22.290Z,94627.7
2023-01-15T12:02:24.990Z,94628.9
2023-01-15T12:03:27.448Z,94623
2023-01-15T12:04:30.290Z,94631.9
2023-01-15T12:05:32.946Z,94632.9
2023-01-15T12:06:35.596Z,94634.8
2023-01-15T12:07:38.102Z,94642.6
2023-01-15T12:08:40.361Z,94647.5
2023-01-15T12:09:42.896Z,94648
2023-01-15T12:10:45.407Z,94648.6
2023-01-15T12:11:47.664Z,94651.1
2023-01-15T12:12:50.270Z,94650.7
2023-01-15T12:13:52.542Z,94654.4
2023-01-15T12:14:55.124Z,94658.8
2023-01-15T12:15:57.284Z,94664.1
2023-01-15T12:16:59.673Z,94664
2023-01-15T12:18:01.926Z,94666.4
2023-01-15T12:19:04.470Z,94664.4
2023-01-15T12:20:06.716Z,94659.9
2023-01-15T12:21:09.259Z,94665.8
2023-01-15T12:22:11.756Z,94667.2
2023-01-15T12:23:14.270Z,94668.5
2023-01-15T12:24:16.623Z,94667.7
2023-01-15T12:25:18.865Z,94663
2023-01-15T12:26:20.821Z,94669.9
2023-01-15T12:27:22.818Z,94672.4
2023-01-15T12:28:25.101Z,94676.3
2023-01-15T12:29:27.333Z,94674
2023-01-15T12:30:29.573Z,94675.2
2023-01-15T12:31:32.313Z,94672.8
2023-01-15T12:32:35.002Z,94672.9
2023-01-15T12:33:37.269Z,94674.2
2023-01-15T12:34:39.807Z,94676.6
2023-01-15T12:35:42.424Z,94672.6
2023-01-15T12:36:44.789Z,94670.6
2023-01-15T12:37:47.387Z,94678.8
2023-01-15T12:38:49.647Z,94677.1
2023-01-15T12:39:52.186Z,94680
2023-01-15T12:40:54.467Z,94681.3
2023-01-15T12:41:56.434Z,94683.4
2023-01-15T12:42:58.388Z,94682.6
2023-01-15T12:44:00.355Z,94686.8
2023-01-15T12:45:02.735Z,94681.3